Hauptseite
METAR-TAF:

METAR-TAF

Flughäfen :

Flughafen Straßburg

Straßburg, Frankreich

Breite: 48-33N, Länge: 007-38E, Höhe: 153 m

Beobachtung

Neuester Wetterbericht von vor 36 Minuten, um 00:00 UTC
Wind 4 kt aus Süd/Südwest
Temperatur 5°C
Luftfeuchtigkeit 100%
Luftdruck 1027 hPa
Sichtweite: 1000 m
feuchter Dunst

METAR: LFST 150000Z AUTO 20004KT 1000 R23/1400N R05/1300N BR VV/// 05/05 Q1027 TEMPO 0200

Zeit: 01:36 (00:36 UTC)

Prognose

Neuester Wetterbericht von vor 1 Stunde und 36 Minuten, um 23:00 UTC
Gültige Prognose vom 15 um 00 UTC bis 15 um 24 UTC
Wind 3 kt aus Ost
Sichtweite: 0600 m
Nebel
Zeitweise
vom 15 um 00 UTC bis 15 um 11 UTC
Sichtweite: 0200 m
Wahrscheinlichkeit 30% :
Zeitweise
vom 15 um 12 UTC bis 15 um 17 UTC
Sichtweite: 4000 m
Durchbrochene Bewölkung in der Höhe von 500 ft
feuchter Dunst

TAF: LFST 142300Z 1500/1524 08003KT 0600 FG VV/// TEMPO 1500/1511 0200 PROB30 TEMPO 1512/1517 4000 BR BKN005

Wetterbeobachtungen und Prognosen von mehr als 4000 Flughäfen (METAR und TAF Bericht).

Die verfügbaren Stationen werden durch gelbe und rote Markierungen auf der Karte dargestellt.

Führen Sie die Maus auf sie, um den Namen der Station zu sehen.

Darauf klicken, um die Beobachtung von Wetterbeobachtungen und Prognosen zu sehen.

Um die Karte zu ändern : klicken Sie auf den grünen Tasten mit einem schwarzen Kreuz Zum Vergrößern, auf den grünen Button mit einem Gedankenstrich zu verkleinern, oder auf die grünen Pfeile für benachbarte Karten.


METAR-TAF: